AirNav   Pilot Hours Calculator
 
 1152 users online  

53MO Help Heliport
Zalma, Missouri, USA

GOING TO ZALMA?


FAA INFORMATION EFFECTIVE 30 DECEMBER 2021

Location

FAA Identifier: 53MO
Lat/Long: 37-09-05.4100N 090-04-16.7400W
37-09.090167N 090-04.279000W
37.1515028,-90.0713167
(estimated)
Elevation: 475 ft. / 145 m (estimated)
Variation: 01E (1990)
From city: 1 mile S of ZALMA, MO
Time zone: UTC -6 (UTC -5 during Daylight Saving Time)
Zip code: 63782

Heliport Operations

Heliport use: Private use. Permission required prior to landing
Activation date: 04/1993
Control tower: no
ARTCC: MEMPHIS CENTER
FSS: SAINT LOUIS FLIGHT SERVICE STATION
Attendance: UNATNDD
Segmented circle: no

Nearby radio navigation aids

VOR radial/distance  VOR name  Freq  Var
FAMr165/32.3FARMINGTON VORTAC115.7001E
MAWr345/36.6MALDEN VORTAC111.2003E

Heliport Services

Runway Information

Helipad H1

Dimensions: 30 x 18 ft. / 9 x 5 m
Surface: concrete
Latitude: 37-09.090167N
Longitude: 090-04.274500W
Elevation: 391.0 ft.
Traffic pattern: leftleft

Heliport Ownership and Management from official FAA records

Ownership: Privately-owned
Owner: ZALMA NEIGHBORHOOD WATCH
ROUTE 1
ZALMA, MO 63787
Phone 573-722-5766
Manager: CONRAD WARD - CHIEF OF POLICE
ROUTE 1
ZALMA, MO 63787
Phone 314-238-2633

Additional Remarks

FOR CD CTC MEMPHIS ARTCC AT 901-368-8453/8449.

Instrument Procedures

There are no published instrument procedures at 53MO.

Some nearby airports with instrument procedures:

KDXE - Dexter Municipal Airport (23 nm S)
KCGI - Cape Girardeau Regional Airport (24 nm E)
KPOF - Poplar Bluff Regional Business Airport (26 nm SW)
KSIK - Sikeston Memorial Municipal Airport (29 nm SE)
H88 - A Paul Vance Fredericktown Regional Airport (29 nm N)
 
Loc | Ops | Rwys | IFR | FBO | Links
Com | Nav | Svcs | Stats | Notes
Area around 53MO (Help Heliport)
 
Road maps at: MapQuest Bing Google
 
Aerial photo
No photo
 
Sectional chart

 
Airport distance calculator
Flying to Help Heliport? Find the distance to fly.

From to 53MO

Sunrise and sunset
Times for 16-Jan-2022
 Local
(UTC-6)
 Zulu
(UTC)
Morning civil twilight06:4512:45
Sunrise07:1413:14
Sunset17:0723:07
Evening civil twilight17:3523:35

Current date and time
Zulu (UTC)  16-Jan-2022 20:39:39
Local (UTC-6)  16-Jan-2022 14:39:39
 
METAR
KCGI 
24nm E 
161953Z 34015KT 10SM CLR 03/M05 A2982 RMK AO2 SLP100 T00331050 $
KPOF 
26nm SW 
161953Z AUTO 32014KT 10SM CLR 06/M04 A2983 RMK AO2 SLP107 T00561044
KSIK 
29nm SE 
162015Z AUTO 35015G20KT 10SM CLR 04/M05 A2982 RMK AO2 TSNO
KMAW 
33nm S 
161955Z AUTO 32011G15KT 10SM CLR 05/M02 A2984 RMK AO2
KFAM 
40nm NW 
161956Z AUTO 32010KT 10SM CLR 01/M06 A2985 RMK AO2 SLP126 T00061061 FZRANO
KCIR 
41nm E 
162015Z AUTO 36008KT 10SM CLR 04/M03 A2980 RMK AO2 T00351032
KPCD 
44nm N 
162015Z AUTO 29012KT 10SM CLR 01/M04 A2984 RMK AO2 T00081043
TAF
KCGI 
24nm E 
161734Z 1618/1718 34012G19KT P6SM SKC FM170000 29007KT P6SM SCT150 FM170400 27009KT P6SM OVC025 FM170900 31014G22KT P6SM OVC015 FM171600 32010G17KT P6SM OVC025
NOTAMs
Click for the latest NOTAMs
NOTAMs are issued by the DoD/FAA and will open in a separate window not controlled by AirNav.

 

 
 

Would you like to see your business listed on this page?

 If your business provides an interesting product or service to pilots, flight crews, aircraft, or users of the Help Heliport, you should consider listing it here.  To start the listing process, click on the button below
 
Add a business
 

Other Pages about Help Heliport

Update a link
 
Copyright © AirNav, LLC. All rights reserved. Privacy Policy  Contact